createdAt,value
2022-07-26T00:00:58.901Z,99738.45
2022-07-26T00:02:03.230Z,99736.89
2022-07-26T00:03:08.590Z,99737.01
2022-07-26T00:04:12.843Z,99739.97
2022-07-26T00:05:18.220Z,99738.04
2022-07-26T00:06:23.808Z,99732.71
2022-07-26T00:07:28.421Z,99731.39
2022-07-26T00:08:33.913Z,99735.22
2022-07-26T00:09:39.485Z,99727.11
2022-07-26T00:10:49.024Z,99724.23
2022-07-26T00:11:55.638Z,99727.02
2022-07-26T00:13:00.083Z,99727.85
2022-07-26T00:14:07.261Z,99726.75
2022-07-26T00:15:15.126Z,99725.07
2022-07-26T00:16:19.766Z,99723.45
2022-07-26T00:17:25.092Z,99727.84
2022-07-26T00:18:28.748Z,99725.61
2022-07-26T00:19:34.102Z,99715.57
2022-07-26T00:20:38.998Z,99722.07
2022-07-26T00:21:42.604Z,99721.15
2022-07-26T00:22:45.413Z,99714.58
2022-07-26T00:23:51.351Z,99719.80
2022-07-26T00:24:57.749Z,99715.78
2022-07-26T00:26:04.987Z,99712.16
2022-07-26T00:27:10.425Z,99715.48
2022-07-26T00:28:14.430Z,99718.11
2022-07-26T00:29:18.627Z,99725.27
2022-07-26T00:30:25.479Z,99718.01
2022-07-26T00:31:29.422Z,99723.05
2022-07-26T00:32:36.275Z,99717.48
2022-07-26T00:33:40.795Z,99717.48
2022-07-26T00:34:44.608Z,99727.25
2022-07-26T00:35:48.803Z,99718.67
2022-07-26T00:36:52.009Z,99713.38
2022-07-26T00:37:58.738Z,99715.53
2022-07-26T00:39:03.164Z,99714.21
2022-07-26T00:40:09.049Z,99713.32
2022-07-26T00:41:12.958Z,99713.02
2022-07-26T00:42:18.021Z,99711.90
2022-07-26T00:43:21.641Z,99708.36
2022-07-26T00:44:25.617Z,99719.43
2022-07-26T00:45:29.239Z,99714.03
2022-07-26T00:46:36.899Z,99714.83
2022-07-26T00:47:41.459Z,99715.26
2022-07-26T00:48:45.971Z,99708.48
2022-07-26T00:49:50.881Z,99703.67
2022-07-26T00:50:59.250Z,99702.35
2022-07-26T00:52:03.755Z,99703.02
2022-07-26T00:53:10.683Z,99704.16
2022-07-26T00:54:15.279Z,99706.86
2022-07-26T00:55:19.654Z,99702.97
2022-07-26T00:56:23.351Z,99704.44
2022-07-26T00:57:28.016Z,99703.59
2022-07-26T00:58:33.581Z,99711.16
2022-07-26T00:59:37.399Z,99701.73
2022-07-26T01:00:43.046Z,99700.14
2022-07-26T01:01:48.016Z,99703.50
2022-07-26T01:27:12.514Z,99698.36
2022-07-26T01:28:19.499Z,99697.23
2022-07-26T01:29:22.190Z,99699.58
2022-07-26T01:30:29.276Z,99711.03
2022-07-26T01:31:32.806Z,99702.09
2022-07-26T01:32:38.772Z,99703.75
2022-07-26T01:33:43.446Z,99698.56
2022-07-26T01:34:47.788Z,99686.09
2022-07-26T01:35:52.424Z,99701.22
2022-07-26T01:38:09.473Z,99693.55
2022-07-26T01:39:12.483Z,99690.93
2022-07-26T01:40:16.273Z,99689.45
2022-07-26T01:41:37.756Z,99690.93
2022-07-26T01:42:29.612Z,99699.02
2022-07-26T01:43:32.650Z,99698.84
2022-07-26T01:44:35.697Z,99694.47
2022-07-26T01:45:39.166Z,99698.42
2022-07-26T01:46:42.945Z,99701.64
2022-07-26T01:47:48.234Z,99698.00
2022-07-26T01:48:52.175Z,99702.05
2022-07-26T01:49:55.342Z,99699.36
2022-07-26T01:51:04.229Z,99700.20
2022-07-26T01:52:07.715Z,99689.77
2022-07-26T01:53:12.683Z,99701.56
2022-07-26T01:54:16.045Z,99691.80
2022-07-26T01:55:21.568Z,99696.05
2022-07-26T01:56:26.853Z,99696.17
2022-07-26T01:57:32.760Z,99698.41
2022-07-26T01:58:36.143Z,99697.36
2022-07-26T01:59:39.660Z,99700.05
2022-07-26T02:00:44.695Z,99690.52
2022-07-26T02:01:51.229Z,99692.10
2022-07-26T02:02:55.096Z,99702.21
2022-07-26T02:04:02.337Z,99706.93
2022-07-26T02:05:06.795Z,99701.87
2022-07-26T02:06:11.099Z,99703.87
2022-07-26T02:07:15.397Z,99702.02
2022-07-26T02:08:18.875Z,99709.04
2022-07-26T02:09:27.875Z,99705.16
2022-07-26T02:10:49.077Z,99703.13
2022-07-26T02:11:54.052Z,99707.19
2022-07-26T02:12:57.623Z,99700.28
2022-07-26T02:14:01.278Z,99698.60
2022-07-26T02:15:09.757Z,99700.61
2022-07-26T02:16:19.354Z,99708.02
2022-07-26T02:17:24.672Z,99696.75
2022-07-26T02:18:30.807Z,99697.59
2022-07-26T02:19:36.198Z,99698.95
2022-07-26T02:20:41.996Z,99700.34
2022-07-26T02:21:46.580Z,99699.33
2022-07-26T02:22:50.318Z,99692.60
2022-07-26T02:23:54.914Z,99692.87
2022-07-26T02:25:04.773Z,99695.06
2022-07-26T02:26:05.931Z,99702.28
2022-07-26T02:27:10.131Z,99699.42
2022-07-26T02:28:13.951Z,99700.55
2022-07-26T02:29:17.982Z,99695.39
2022-07-26T02:30:26.184Z,99703.82
2022-07-26T02:31:32.386Z,99693.44
2022-07-26T02:32:39.410Z,99699.33
2022-07-26T02:33:43.228Z,99694.05
2022-07-26T02:34:55.800Z,99692.52
2022-07-26T02:35:59.173Z,99692.11
2022-07-26T02:37:06.360Z,99694.63
2022-07-26T02:38:12.614Z,99694.63
2022-07-26T02:39:16.890Z,99695.13
2022-07-26T02:40:24.723Z,99699.33
2022-07-26T02:41:31.457Z,99698.66
2022-07-26T02:42:35.565Z,99698.77
2022-07-26T02:43:39.262Z,99700.98
2022-07-26T02:44:41.881Z,99690.33
2022-07-26T02:45:44.568Z,99698.77
2022-07-26T02:46:51.497Z,99695.79
2022-07-26T02:47:56.126Z,99692.86
2022-07-26T02:49:05.380Z,99699.41
2022-07-26T02:50:12.118Z,99697.72
2022-07-26T02:51:15.635Z,99703.25
2022-07-26T02:52:21.121Z,99705.67
2022-07-26T02:53:24.802Z,99705.32
2022-07-26T02:54:34.629Z,99698.73
2022-07-26T02:55:39.702Z,99701.89
2022-07-26T02:56:45.340Z,99705.43
2022-07-26T02:57:49.112Z,99704.23
2022-07-26T02:58:54.500Z,99704.05
2022-07-26T02:59:58.950Z,99704.33
2022-07-26T03:01:03.644Z,99702.61
2022-07-26T03:02:09.254Z,99702.35
2022-07-26T03:03:14.521Z,99700.31
2022-07-26T03:04:18.581Z,99703.86
2022-07-26T03:05:22.843Z,99695.63
2022-07-26T03:06:27.750Z,99704.32
2022-07-26T03:08:42.273Z,99692.38
2022-07-26T03:09:45.713Z,99700.22
2022-07-26T03:10:48.447Z,99701.22
2022-07-26T03:11:52.376Z,99699.45
2022-07-26T03:12:59.491Z,99698.42
2022-07-26T03:14:02.734Z,99704.77
2022-07-26T03:15:09.917Z,99702.80
2022-07-26T03:16:17.962Z,99707.25
2022-07-26T03:17:19.499Z,99704.14
2022-07-26T03:18:29.734Z,99705.51
2022-07-26T03:19:34.278Z,99698.79
2022-07-26T03:20:38.067Z,99708.09
2022-07-26T03:21:40.533Z,99707.02
2022-07-26T03:22:47.744Z,99706.58
2022-07-26T03:23:51.295Z,99711.10
2022-07-26T03:24:54.624Z,99711.37
2022-07-26T03:25:59.193Z,99702.45
2022-07-26T03:27:06.506Z,99707.30
2022-07-26T03:28:10.435Z,99710.37
2022-07-26T03:29:14.079Z,99703.28
2022-07-26T03:30:24.531Z,99705.45
2022-07-26T03:31:30.984Z,99696.22
2022-07-26T03:32:35.977Z,99699.73
2022-07-26T03:33:41.640Z,99700.83
2022-07-26T03:34:49.150Z,99698.20
2022-07-26T03:36:00.333Z,99691.39
2022-07-26T03:37:08.190Z,99696.41
2022-07-26T03:38:12.716Z,99691.45
2022-07-26T03:39:16.115Z,99700.48
2022-07-26T03:40:21.392Z,99692.84
2022-07-26T03:41:25.289Z,99701.89
2022-07-26T03:42:29.772Z,99699.73
2022-07-26T03:43:39.248Z,99701.23
2022-07-26T03:44:43.046Z,99702.19
2022-07-26T03:45:46.535Z,99707.11
2022-07-26T03:46:50.339Z,99700.78
2022-07-26T03:47:53.732Z,99704.02
2022-07-26T03:48:57.241Z,99705.94
2022-07-26T03:50:01.266Z,99701.98
2022-07-26T03:52:16.869Z,99700.20
2022-07-26T03:53:20.449Z,99699.73
2022-07-26T03:54:27.946Z,99705.21
2022-07-26T03:55:51.123Z,99695.73
2022-07-26T03:56:55.198Z,99700.00
2022-07-26T03:57:58.737Z,99704.20
2022-07-26T03:59:10.562Z,99697.59
2022-07-26T04:00:18.489Z,99700.77
2022-07-26T04:01:23.772Z,99703.00
2022-07-26T04:02:27.263Z,99700.84
2022-07-26T04:03:31.268Z,99704.59
2022-07-26T04:04:35.506Z,99704.67
2022-07-26T04:05:39.318Z,99704.12
2022-07-26T04:06:47.174Z,99707.30
2022-07-26T04:07:53.084Z,99713.80
2022-07-26T04:08:56.816Z,99709.05
2022-07-26T04:10:01.578Z,99709.34
2022-07-26T04:11:04.867Z,99703.00
2022-07-26T04:12:09.568Z,99710.63
2022-07-26T04:13:13.081Z,99701.31
2022-07-26T04:14:18.500Z,99709.88
2022-07-26T04:15:25.411Z,99704.86
2022-07-26T04:16:40.104Z,99715.65
2022-07-26T04:17:44.256Z,99715.17
2022-07-26T04:18:46.883Z,99713.13
2022-07-26T04:19:51.553Z,99707.84
2022-07-26T04:20:54.292Z,99707.08
2022-07-26T04:21:57.689Z,99712.78
2022-07-26T04:23:01.551Z,99711.57
2022-07-26T04:24:06.732Z,99705.52
2022-07-26T04:25:12.337Z,99714.63
2022-07-26T04:26:15.787Z,99703.08
2022-07-26T04:27:19.289Z,99703.06
2022-07-26T04:28:24.050Z,99700.54
2022-07-26T04:29:30.743Z,99705.36
2022-07-26T04:30:35.789Z,99700.22
2022-07-26T04:31:42.763Z,99705.14
2022-07-26T04:32:49.711Z,99706.86
2022-07-26T04:33:53.204Z,99714.16
2022-07-26T04:34:59.863Z,99714.05
2022-07-26T04:36:04.562Z,99730.31
2022-07-26T04:37:11.265Z,99728.65
2022-07-26T04:38:15.369Z,99741.39
2022-07-26T04:39:22.300Z,99748.48
2022-07-26T04:40:28.546Z,99762.31
2022-07-26T04:41:39.361Z,99759.43
2022-07-26T04:42:43.005Z,99769.57
2022-07-26T04:43:50.049Z,99774.15
2022-07-26T04:44:53.710Z,99781.24
2022-07-26T04:47:13.870Z,99778.95
2022-07-26T04:48:18.046Z,99781.97
2022-07-26T04:49:25.118Z,99785.34
2022-07-26T04:50:35.180Z,99790.08
2022-07-26T04:51:40.843Z,99774.42
2022-07-26T04:52:44.278Z,99788.02
2022-07-26T04:53:47.744Z,99789.92
2022-07-26T04:54:51.107Z,99797.04
2022-07-26T04:55:54.793Z,99797.35
2022-07-26T04:57:01.192Z,99791.51
2022-07-26T04:58:05.842Z,99790.89
2022-07-26T04:59:09.660Z,99800.58
2022-07-26T05:00:21.702Z,99799.55
2022-07-26T05:01:24.691Z,99805.76
2022-07-26T05:02:28.431Z,99802.10
2022-07-26T05:03:31.966Z,99798.97
2022-07-26T05:04:37.656Z,99797.92
2022-07-26T05:05:41.196Z,99793.72
2022-07-26T05:06:44.743Z,99800.22
2022-07-26T05:07:54.246Z,99789.58
2022-07-26T05:08:58.575Z,99795.62
2022-07-26T05:10:02.079Z,99796.25
2022-07-26T05:11:04.979Z,99794.59
2022-07-26T05:12:10.484Z,99796.35
2022-07-26T05:13:23.154Z,99802.36
2022-07-26T05:14:24.944Z,99798.69
2022-07-26T05:15:35.018Z,99806.58
2022-07-26T05:16:35.218Z,99807.70
2022-07-26T05:17:41.453Z,99807.88
2022-07-26T05:18:45.729Z,99805.59
2022-07-26T05:19:54.271Z,99804.55
2022-07-26T05:21:01.280Z,99802.56
2022-07-26T05:22:04.934Z,99806.73
2022-07-26T05:23:08.108Z,99793.94
2022-07-26T05:24:12.132Z,99793.94
2022-07-26T05:25:14.926Z,99806.67
2022-07-26T05:26:19.513Z,99808.33
2022-07-26T05:27:24.557Z,99805.75
2022-07-26T05:28:28.980Z,99807.73
2022-07-26T05:29:33.080Z,99807.27
2022-07-26T05:30:40.599Z,99801.58
2022-07-26T05:31:49.149Z,99814.63
2022-07-26T05:32:53.909Z,99820.08
2022-07-26T05:33:58.846Z,99825.23
2022-07-26T05:35:03.397Z,99823.48
2022-07-26T05:36:07.255Z,99828.96
2022-07-26T05:37:10.690Z,99829.93
2022-07-26T05:38:14.071Z,99821.81
2022-07-26T05:39:17.839Z,99822.30
2022-07-26T05:40:21.647Z,99822.34
2022-07-26T05:41:26.204Z,99818.75
2022-07-26T05:42:31.064Z,99812.70
2022-07-26T05:43:41.599Z,99819.19
2022-07-26T05:44:44.500Z,99829.70
2022-07-26T05:45:49.282Z,99840.23
2022-07-26T05:46:53.091Z,99825.87
2022-07-26T05:48:01.099Z,99828.48
2022-07-26T05:49:07.284Z,99822.18
2022-07-26T05:50:11.323Z,99823.84
2022-07-26T05:51:14.983Z,99815.66
2022-07-26T05:52:18.597Z,99822.66
2022-07-26T05:53:22.615Z,99827.01
2022-07-26T05:54:26.039Z,99826.53
2022-07-26T05:55:29.099Z,99824.97
2022-07-26T05:56:36.194Z,99822.56
2022-07-26T05:57:42.797Z,99827.52
2022-07-26T05:58:50.050Z,99825.67
2022-07-26T05:59:53.624Z,99837.92
2022-07-26T06:00:58.295Z,99828.23
2022-07-26T06:02:02.010Z,99840.40
2022-07-26T06:04:19.633Z,99829.80
2022-07-26T06:05:24.320Z,99833.63
2022-07-26T06:06:28.770Z,99822.78
2022-07-26T06:07:31.401Z,99829.99
2022-07-26T06:08:36.223Z,99819.41
2022-07-26T06:09:40.672Z,99827.05
2022-07-26T06:10:46.780Z,99827.56
2022-07-26T06:11:50.292Z,99828.61
2022-07-26T06:12:53.626Z,99825.98
2022-07-26T06:14:00.264Z,99825.04
2022-07-26T06:15:15.709Z,99814.41
2022-07-26T06:16:12.883Z,99789.77
2022-07-26T06:17:16.605Z,99786.09
2022-07-26T06:18:21.140Z,99787.86
2022-07-26T06:19:24.785Z,99791.03
2022-07-26T06:20:35.029Z,99802.64
2022-07-26T06:21:38.964Z,99808.84
2022-07-26T06:22:41.771Z,99798.68
2022-07-26T06:23:45.765Z,99790.61
2022-07-26T06:24:52.443Z,99772.58
2022-07-26T06:25:56.956Z,99780.64
2022-07-26T06:28:13.154Z,99758.05
2022-07-26T06:29:16.720Z,99752.43
2022-07-26T06:30:21.311Z,99753.25
2022-07-26T06:31:26.286Z,99755.39
2022-07-26T06:32:30.529Z,99751.63
2022-07-26T06:33:34.685Z,99750.23
2022-07-26T06:34:40.057Z,99752.34
2022-07-26T06:35:43.588Z,99772.35
2022-07-26T06:36:47.473Z,99770.52
2022-07-26T06:37:52.719Z,99774.15
2022-07-26T06:38:56.353Z,99757.19
2022-07-26T06:39:59.864Z,99749.01
2022-07-26T06:41:08.224Z,99746.81
2022-07-26T06:42:11.706Z,99752.67
2022-07-26T06:43:17.998Z,99750.86
2022-07-26T06:44:20.769Z,99760.62
2022-07-26T06:45:24.437Z,99756.09
2022-07-26T06:46:29.075Z,99750.41
2022-07-26T06:47:33.058Z,99749.05
2022-07-26T06:48:36.145Z,99759.78
2022-07-26T06:49:41.049Z,99771.83
2022-07-26T06:50:45.874Z,99767.16
2022-07-26T06:51:49.374Z,99761.35
2022-07-26T06:52:53.052Z,99742.41
2022-07-26T06:54:00.981Z,99748.15
2022-07-26T06:55:06.619Z,99751.19
2022-07-26T06:56:09.553Z,99762.07
2022-07-26T06:57:13.595Z,99765.73
2022-07-26T06:58:17.812Z,99758.95
2022-07-26T06:59:21.431Z,99750.87
2022-07-26T07:00:25.174Z,99739.78
2022-07-26T07:01:58.611Z,99740.16
2022-07-26T07:02:37.543Z,99722.75
2022-07-26T07:03:40.604Z,99718.95
2022-07-26T07:04:46.497Z,99718.48
2022-07-26T07:05:52.382Z,99713.50
2022-07-26T07:06:58.116Z,99717.27
2022-07-26T07:08:07.571Z,99730.28
2022-07-26T07:09:11.255Z,99735.84
2022-07-26T07:10:17.577Z,99730.55
2022-07-26T07:11:24.752Z,99738.52
2022-07-26T07:12:30.962Z,99743.97
2022-07-26T07:13:33.741Z,99733.38
2022-07-26T07:14:37.920Z,99728.91
2022-07-26T07:15:40.885Z,99744.09
2022-07-26T07:16:52.942Z,99758.93
2022-07-26T07:17:55.601Z,99766.83
2022-07-26T07:18:58.527Z,99757.61
2022-07-26T07:20:05.135Z,99750.03
2022-07-26T07:21:08.054Z,99760.16
2022-07-26T07:22:15.624Z,99765.20
2022-07-26T07:23:22.981Z,99769.54
2022-07-26T07:24:25.640Z,99770.48
2022-07-26T07:25:30.788Z,99775.00
2022-07-26T07:26:36.816Z,99776.44
2022-07-26T07:27:40.500Z,99757.45
2022-07-26T07:28:44.037Z,99751.52
2022-07-26T07:29:49.598Z,99738.72
2022-07-26T07:30:54.572Z,99729.27
2022-07-26T07:31:58.309Z,99723.00
2022-07-26T07:33:03.547Z,99727.81
2022-07-26T07:34:08.605Z,99723.65
2022-07-26T07:35:12.935Z,99713.19
2022-07-26T07:36:23.949Z,99720.58
2022-07-26T07:37:26.876Z,99725.84
2022-07-26T07:38:33.778Z,99735.63
2022-07-26T07:39:39.424Z,99734.13
2022-07-26T07:40:44.908Z,99749.59
2022-07-26T07:41:49.636Z,99732.75
2022-07-26T07:42:58.360Z,99735.75
2022-07-26T07:44:02.229Z,99739.26
2022-07-26T07:45:09.110Z,99745.64
2022-07-26T07:46:15.146Z,99758.23
2022-07-26T07:47:19.208Z,99749.71
2022-07-26T07:48:24.628Z,99752.16
2022-07-26T07:49:29.308Z,99753.56
2022-07-26T07:50:35.241Z,99752.00
2022-07-26T07:51:40.741Z,99749.22
2022-07-26T07:52:46.479Z,99752.02
2022-07-26T07:55:36.590Z,99753.38
2022-07-26T07:56:09.128Z,99749.77
2022-07-26T07:57:13.661Z,99746.83
2022-07-26T07:58:18.981Z,99751.42
2022-07-26T07:59:26.878Z,99750.66
2022-07-26T08:00:32.101Z,99758.02
2022-07-26T08:01:39.526Z,99771.11
2022-07-26T08:02:48.523Z,99762.83
2022-07-26T08:03:54.914Z,99764.80
2022-07-26T08:05:03.089Z,99759.52
2022-07-26T08:06:05.786Z,99757.77
2022-07-26T08:07:09.607Z,99753.93
2022-07-26T08:08:13.357Z,99760.22
2022-07-26T08:09:18.227Z,99749.88
2022-07-26T08:10:21.903Z,99747.75
2022-07-26T08:11:25.229Z,99745.98
2022-07-26T08:12:29.752Z,99740.22
2022-07-26T08:13:34.087Z,99738.94
2022-07-26T08:14:37.697Z,99736.36
2022-07-26T08:15:49.986Z,99733.44
2022-07-26T08:16:55.188Z,99738.28
2022-07-26T08:17:57.723Z,99740.49
2022-07-26T08:19:03.172Z,99740.63
2022-07-26T08:20:08.925Z,99741.30
2022-07-26T08:21:15.433Z,99743.39
2022-07-26T08:22:19.321Z,99750.28
2022-07-26T08:23:32.006Z,99754.68
2022-07-26T08:24:35.769Z,99750.00
2022-07-26T08:25:50.076Z,99742.91
2022-07-26T08:26:45.388Z,99743.70
2022-07-26T08:28:03.291Z,99740.75
2022-07-26T08:28:58.376Z,99745.11
2022-07-26T08:29:59.041Z,99738.36
2022-07-26T08:31:03.233Z,99741.77
2022-07-26T08:32:07.612Z,99738.86
2022-07-26T08:33:11.742Z,99739.45
2022-07-26T08:34:17.070Z,99742.09
2022-07-26T08:35:22.782Z,99738.00
2022-07-26T08:36:32.219Z,99741.58
2022-07-26T08:37:32.504Z,99742.35
2022-07-26T08:38:38.494Z,99738.83
2022-07-26T08:40:00.037Z,99735.89
2022-07-26T08:41:03.889Z,99735.20
2022-07-26T08:42:22.486Z,99728.48
2022-07-26T08:43:25.279Z,99729.20
2022-07-26T08:44:29.173Z,99725.37
2022-07-26T08:45:32.950Z,99721.06
2022-07-26T08:46:37.694Z,99712.50
2022-07-26T08:47:55.388Z,99716.59
2022-07-26T08:48:46.163Z,99720.86
2022-07-26T08:49:51.112Z,99726.66
2022-07-26T08:50:57.701Z,99717.27
2022-07-26T08:52:02.053Z,99730.34
2022-07-26T08:53:09.009Z,99719.50
2022-07-26T08:54:16.137Z,99721.58
2022-07-26T08:55:21.188Z,99716.38
2022-07-26T08:56:29.067Z,99721.48
2022-07-26T08:57:33.506Z,99718.30
2022-07-26T08:58:37.428Z,99725.10
2022-07-26T08:59:40.830Z,99725.77
2022-07-26T09:00:47.581Z,99729.05
2022-07-26T09:01:55.500Z,99722.52
2022-07-26T09:03:03.379Z,99720.60
2022-07-26T09:04:31.854Z,99707.03
2022-07-26T09:05:32.615Z,99711.97
2022-07-26T09:06:37.116Z,99703.22
2022-07-26T09:07:44.345Z,99699.78
2022-07-26T09:08:50.488Z,99692.80
2022-07-26T09:10:01.018Z,99703.54
2022-07-26T09:12:29.747Z,99700.53
2022-07-26T09:13:53.090Z,99703.88
2022-07-26T09:14:58.848Z,99697.42
2022-07-26T09:16:12.567Z,99692.98
2022-07-26T09:17:22.689Z,99692.75
2022-07-26T09:18:28.546Z,99693.59
2022-07-26T09:19:30.966Z,99692.86
2022-07-26T09:20:35.189Z,99687.55
2022-07-26T09:21:39.639Z,99691.84
2022-07-26T09:23:01.454Z,99688.69
2022-07-26T09:24:08.824Z,99690.57
2022-07-26T09:25:25.169Z,99690.43
2022-07-26T09:26:29.025Z,99688.42
2022-07-26T09:27:36.363Z,99692.00
2022-07-26T09:28:45.036Z,99698.13
2022-07-26T09:29:53.376Z,99695.63
2022-07-26T09:31:04.243Z,99691.14
2022-07-26T09:32:17.709Z,99692.26
2022-07-26T09:33:21.804Z,99692.24
2022-07-26T09:34:27.784Z,99689.78
2022-07-26T09:35:52.315Z,99695.36
2022-07-26T09:36:54.414Z,99695.89
2022-07-26T09:37:59.327Z,99696.16
2022-07-26T09:39:04.832Z,99686.88
2022-07-26T09:40:14.733Z,99685.51
2022-07-26T09:41:25.040Z,99685.50
2022-07-26T09:42:30.220Z,99680.53
2022-07-26T09:43:39.691Z,99675.45
2022-07-26T09:44:47.856Z,99680.56
2022-07-26T09:45:53.846Z,99687.10
2022-07-26T09:47:01.605Z,99684.62
2022-07-26T09:48:06.071Z,99680.02
2022-07-26T09:49:21.728Z,99685.93
2022-07-26T09:50:32.679Z,99683.47
2022-07-26T09:51:49.957Z,99687.20
2022-07-26T09:53:06.461Z,99683.97
2022-07-26T09:54:14.161Z,99695.17
2022-07-26T09:55:19.154Z,99695.24
2022-07-26T09:56:22.045Z,99691.19
2022-07-26T09:57:25.292Z,99691.34
2022-07-26T09:58:31.785Z,99693.40
2022-07-26T09:59:43.084Z,99695.85
2022-07-26T10:00:50.040Z,99696.19
2022-07-26T10:01:54.167Z,99689.74
2022-07-26T10:03:00.444Z,99690.23
2022-07-26T10:05:18.935Z,99686.43
2022-07-26T10:06:28.555Z,99683.33
2022-07-26T10:07:29.754Z,99684.11
2022-07-26T10:08:33.518Z,99693.56
2022-07-26T10:09:53.258Z,99684.43
2022-07-26T10:11:09.895Z,99682.03
2022-07-26T10:12:16.931Z,99691.31
2022-07-26T10:13:23.684Z,99679.75
2022-07-26T10:14:46.683Z,99686.36
2022-07-26T10:15:51.638Z,99673.18
2022-07-26T10:16:56.686Z,99686.13
2022-07-26T10:17:59.829Z,99683.38
2022-07-26T10:19:06.983Z,99687.59
2022-07-26T10:20:37.107Z,99686.19
2022-07-26T10:21:50.641Z,99691.86
2022-07-26T10:22:55.519Z,99682.80
2022-07-26T10:24:04.158Z,99680.52
2022-07-26T10:25:20.695Z,99686.95
2022-07-26T10:26:36.642Z,99683.78
2022-07-26T10:27:52.369Z,99681.83
2022-07-26T10:28:55.815Z,99684.20
2022-07-26T10:30:19.053Z,99682.39
2022-07-26T10:31:30.654Z,99675.89
2022-07-26T10:32:36.090Z,99681.17
2022-07-26T10:33:44.904Z,99684.54
2022-07-26T10:34:48.325Z,99680.48
2022-07-26T10:35:51.276Z,99677.81
2022-07-26T10:37:08.885Z,99673.89
2022-07-26T10:38:26.521Z,99673.91
2022-07-26T10:39:32.220Z,99665.31
2022-07-26T10:40:38.572Z,99670.38
2022-07-26T10:41:46.265Z,99667.66
2022-07-26T10:42:51.344Z,99667.70
2022-07-26T10:44:09.687Z,99670.14
2022-07-26T10:45:22.554Z,99667.37
2022-07-26T10:46:30.588Z,99664.65
2022-07-26T10:47:35.469Z,99670.59
2022-07-26T10:49:04.311Z,99666.66
2022-07-26T10:50:12.909Z,99669.98
2022-07-26T10:52:36.649Z,99665.60
2022-07-26T10:53:41.620Z,99668.75
2022-07-26T10:55:08.294Z,99666.41
2022-07-26T10:56:16.289Z,99664.62
2022-07-26T10:57:21.073Z,99665.13
2022-07-26T10:58:27.072Z,99662.70
2022-07-26T10:59:54.682Z,99670.12
2022-07-26T11:00:45.850Z,99662.86
2022-07-26T11:01:50.017Z,99669.83
2022-07-26T11:02:58.247Z,99665.87
2022-07-26T11:04:01.764Z,99665.34
2022-07-26T11:05:16.669Z,99666.36
2022-07-26T11:06:22.196Z,99672.03
2022-07-26T11:07:26.264Z,99666.69
2022-07-26T11:08:32.548Z,99663.57
2022-07-26T11:09:37.157Z,99665.33
2022-07-26T11:10:47.648Z,99659.73
2022-07-26T11:11:51.951Z,99662.53
2022-07-26T11:13:09.604Z,99656.35
2022-07-26T11:14:16.879Z,99659.70
2022-07-26T11:15:26.021Z,99658.58
2022-07-26T11:16:43.239Z,99655.29
2022-07-26T11:17:47.124Z,99658.03
2022-07-26T11:18:51.511Z,99654.80
2022-07-26T11:19:57.428Z,99668.29
2022-07-26T11:21:13.826Z,99667.11
2022-07-26T11:22:21.381Z,99674.22
2022-07-26T11:23:30.936Z,99660.27
2022-07-26T11:24:39.530Z,99666.41
2022-07-26T11:25:43.567Z,99666.82
2022-07-26T11:26:47.567Z,99658.20
2022-07-26T11:28:07.364Z,99667.34
2022-07-26T11:29:17.512Z,99659.09
2022-07-26T11:30:19.553Z,99653.92
2022-07-26T11:32:49.665Z,99658.66
2022-07-26T11:33:54.357Z,99656.11
2022-07-26T11:34:59.559Z,99662.66
2022-07-26T11:36:12.204Z,99665.43
2022-07-26T11:37:16.175Z,99658.36
2022-07-26T11:38:25.102Z,99657.14
2022-07-26T11:39:34.660Z,99660.83
2022-07-26T11:40:47.613Z,99660.57
2022-07-26T11:43:08.148Z,99658.04
2022-07-26T11:44:21.321Z,99663.69
2022-07-26T11:45:31.487Z,99662.85
2022-07-26T11:46:45.027Z,99655.70
2022-07-26T11:47:48.916Z,99655.65
2022-07-26T11:48:57.066Z,99654.19
2022-07-26T11:50:16.821Z,99654.59
2022-07-26T11:51:27.876Z,99639.72
2022-07-26T11:52:40.418Z,99649.38
2022-07-26T11:53:46.994Z,99652.02
2022-07-26T11:54:54.144Z,99650.20
2022-07-26T11:56:04.938Z,99654.78
2022-07-26T11:57:17.278Z,99646.27
2022-07-26T11:58:24.187Z,99647.14
2022-07-26T11:59:31.586Z,99644.90
2022-07-26T12:00:35.755Z,99644.40
2022-07-26T12:01:40.631Z,99640.88
2022-07-26T12:02:51.423Z,99649.41
2022-07-26T12:03:55.643Z,99643.98
2022-07-26T12:05:21.470Z,99640.88
2022-07-26T12:06:30.345Z,99646.62
2022-07-26T12:07:34.084Z,99640.88
2022-07-26T12:08:43.136Z,99644.20
2022-07-26T12:09:51.122Z,99646.81
2022-07-26T12:11:01.656Z,99641.91
2022-07-26T12:13:39.722Z,99635.44
2022-07-26T12:14:41.598Z,99645.84
2022-07-26T12:15:51.737Z,99638.39
2022-07-26T12:16:58.218Z,99631.76
2022-07-26T12:18:02.436Z,99629.66
2022-07-26T12:19:08.067Z,99622.42
2022-07-26T12:20:19.484Z,99631.78
2022-07-26T12:21:42.014Z,99627.80
2022-07-26T12:22:57.751Z,99630.16
2022-07-26T12:24:01.542Z,99622.22
2022-07-26T12:25:06.530Z,99613.55
2022-07-26T12:26:29.042Z,99624.72
2022-07-26T12:27:34.455Z,99615.38
2022-07-26T12:28:42.995Z,99618.13
2022-07-26T12:31:01.481Z,99610.97
2022-07-26T12:32:12.747Z,99614.00
2022-07-26T12:33:16.858Z,99609.06
2022-07-26T12:34:22.242Z,99615.13
2022-07-26T12:35:34.179Z,99614.48
2022-07-26T12:36:43.418Z,99613.91
2022-07-26T12:37:52.540Z,99609.41
2022-07-26T12:39:01.550Z,99611.56
2022-07-26T12:40:16.361Z,99609.75
2022-07-26T12:41:36.113Z,99609.88
2022-07-26T12:42:45.757Z,99611.78
2022-07-26T12:43:52.754Z,99612.20
2022-07-26T12:44:57.757Z,99615.23
2022-07-26T12:46:04.387Z,99613.13
2022-07-26T12:47:09.926Z,99606.33
2022-07-26T12:48:12.809Z,99611.98
2022-07-26T12:49:19.146Z,99611.31
2022-07-26T12:50:28.093Z,99609.89
2022-07-26T12:51:31.011Z,99617.81
2022-07-26T12:52:38.382Z,99617.04
2022-07-26T12:53:43.594Z,99615.56
2022-07-26T12:54:52.164Z,99611.73
2022-07-26T12:55:57.143Z,99611.37
2022-07-26T12:56:59.822Z,99607.97
2022-07-26T12:58:07.349Z,99612.28
2022-07-26T12:59:17.691Z,99615.91
2022-07-26T13:00:22.600Z,99609.83
2022-07-26T13:01:25.864Z,99622.17
2022-07-26T13:02:29.032Z,99614.91
2022-07-26T13:03:32.393Z,99623.18
2022-07-26T13:04:36.717Z,99619.32
2022-07-26T13:05:41.033Z,99612.17
2022-07-26T13:06:45.729Z,99613.98
2022-07-26T13:08:02.531Z,99618.56
2022-07-26T13:09:07.931Z,99619.06
2022-07-26T13:11:21.113Z,99616.09
2022-07-26T13:12:25.373Z,99609.99
2022-07-26T13:13:29.471Z,99612.60
2022-07-26T13:14:42.272Z,99606.93
2022-07-26T13:15:48.768Z,99609.58
2022-07-26T13:16:54.228Z,99605.80
2022-07-26T13:17:58.622Z,99603.19
2022-07-26T13:19:02.464Z,99604.01
2022-07-26T13:20:10.764Z,99601.52
2022-07-26T13:21:15.441Z,99598.85
2022-07-26T13:22:18.912Z,99601.77
2022-07-26T13:23:26.039Z,99603.72
2022-07-26T13:24:31.830Z,99601.62
2022-07-26T13:25:39.616Z,99604.47
2022-07-26T13:26:43.174Z,99600.52
2022-07-26T13:27:45.893Z,99595.73
2022-07-26T13:28:50.168Z,99594.75
2022-07-26T13:29:54.393Z,99585.14
2022-07-26T13:31:01.063Z,99589.14
2022-07-26T13:32:06.702Z,99589.48
2022-07-26T13:33:16.957Z,99590.68
2022-07-26T13:34:23.137Z,99590.64
2022-07-26T13:35:28.551Z,99595.02
2022-07-26T13:36:33.005Z,99591.63
2022-07-26T13:37:37.548Z,99588.73
2022-07-26T13:38:43.247Z,99583.83
2022-07-26T13:39:48.605Z,99579.91
2022-07-26T13:40:53.722Z,99583.72
2022-07-26T13:41:58.159Z,99580.50
2022-07-26T13:43:02.080Z,99582.22